Time;durP1;ratioP1;P1;durP2;ratioP2;P2;SDS_P1;SDS_P2;PMS_P1;PMS_P2;Temp;Humidity;BMP_temperature;BMP_pressure;BME280_temperature;BME280_humidity;BME280_pressure;Samples;Min_cycle;Max_cycle;Signal;HPM_P1;HPM_P2
2023/12/27 00:01:44;;;;;;;12.35;4.00;;;;;;;;;;6268537;28;20118;-68
2023/12/27 00:04:48;;;;;;;12.38;3.92;;;;;;;;;;6265285;28;20057;-67
2023/12/27 00:07:49;;;;;;;8.73;3.20;;;;;;;;;;6268289;28;20049;-67
2023/12/27 00:10:49;;;;;;;10.10;3.42;;;;;;;;;;6264707;28;20063;-67
2023/12/27 00:13:50;;;;;;;9.45;3.38;;;;;;;;;;6269583;28;20060;-69
2023/12/27 00:16:51;;;;;;;10.52;4.07;;;;;;;;;;6270450;28;20084;-68
2023/12/27 00:19:51;;;;;;;10.18;3.63;;;;;;;;;;6272576;28;20102;-69
2023/12/27 00:22:52;;;;;;;11.48;3.38;;;;;;;;;;6262409;28;20057;-68
2023/12/27 00:25:53;;;;;;;8.80;3.55;;;;;;;;;;6266855;28;20059;-68
2023/12/27 00:28:56;;;;;;;11.52;3.40;;;;;;;;;;6269186;28;20068;-68
2023/12/27 00:31:56;;;;;;;12.38;4.32;;;;;;;;;;6269138;28;20517;-69
2023/12/27 00:34:57;;;;;;;10.05;3.72;;;;;;;;;;6263706;28;20057;-68
2023/12/27 00:37:58;;;;;;;12.13;4.18;;;;;;;;;;6267834;28;20060;-69
2023/12/27 00:41:03;;;;;;;10.95;3.45;;;;;;;;;;6272126;28;20049;-67
2023/12/27 00:44:04;;;;;;;10.68;3.13;;;;;;;;;;6265213;28;20522;-68
2023/12/27 00:47:05;;;;;;;9.52;3.20;;;;;;;;;;6264820;28;20098;-68
2023/12/27 00:50:06;;;;;;;10.98;3.95;;;;;;;;;;6270330;28;20055;-68
2023/12/27 00:53:07;;;;;;;14.55;3.40;;;;;;;;;;6271738;28;20051;-68
2023/12/27 00:56:07;;;;;;;10.75;3.47;;;;;;;;;;6266449;28;20431;-67
2023/12/27 00:59:08;;;;;;;10.10;3.50;;;;;;;;;;6289610;28;20041;-69
2023/12/27 01:02:09;;;;;;;11.07;3.00;;;;;;;;;;6280578;28;20518;-67
2023/12/27 01:05:09;;;;;;;8.10;2.40;;;;;;;;;;6288416;28;20056;-69
2023/12/27 01:08:11;;;;;;;9.73;2.78;;;;;;;;;;6287720;28;20052;-68
2023/12/27 01:11:11;;;;;;;14.23;3.33;;;;;;;;;;6288683;28;20071;-68
2023/12/27 01:14:12;;;;;;;7.35;2.50;;;;;;;;;;6290733;28;20400;-68
2023/12/27 01:17:13;;;;;;;6.85;2.70;;;;;;;;;;6288492;28;20568;-68
2023/12/27 01:20:13;;;;;;;12.32;2.60;;;;;;;;;;6288404;28;20059;-67
2023/12/27 01:23:14;;;;;;;8.85;2.25;;;;;;;;;;6289996;28;20129;-68
2023/12/27 01:26:15;;;;;;;8.95;2.38;;;;;;;;;;6289869;28;20044;-68
2023/12/27 01:29:16;;;;;;;6.50;2.30;;;;;;;;;;6292512;28;20093;-68
2023/12/27 01:32:16;;;;;;;5.80;2.22;;;;;;;;;;6293824;28;20774;-68
2023/12/27 01:35:17;;;;;;;5.43;2.08;;;;;;;;;;6279589;28;20052;-68
2023/12/27 01:38:17;;;;;;;7.63;2.63;;;;;;;;;;6293779;28;20045;-68
2023/12/27 01:41:19;;;;;;;6.28;2.78;;;;;;;;;;6293355;28;20076;-68
2023/12/27 01:44:21;;;;;;;7.97;2.77;;;;;;;;;;6286494;28;20382;-67
2023/12/27 01:47:22;;;;;;;9.50;2.50;;;;;;;;;;6292808;28;20297;-68
2023/12/27 01:50:22;;;;;;;8.40;2.92;;;;;;;;;;6292247;28;20423;-68
2023/12/27 01:53:24;;;;;;;10.57;2.65;;;;;;;;;;6293889;28;20048;-68
2023/12/27 01:56:24;;;;;;;9.13;2.50;;;;;;;;;;6291275;28;20044;-68
2023/12/27 01:59:25;;;;;;;10.70;3.08;;;;;;;;;;6293973;28;20094;-69
2023/12/27 02:02:26;;;;;;;9.00;2.78;;;;;;;;;;6293596;28;20044;-69
2023/12/27 02:05:27;;;;;;;9.20;2.40;;;;;;;;;;6291858;28;20151;-69
2023/12/27 02:08:28;;;;;;;6.25;2.58;;;;;;;;;;6292867;28;20166;-68
2023/12/27 02:11:29;;;;;;;6.93;2.57;;;;;;;;;;6291731;28;20087;-69
2023/12/27 02:14:30;;;;;;;8.57;2.70;;;;;;;;;;6292905;28;20052;-69
2023/12/27 02:17:32;;;;;;;7.90;2.80;;;;;;;;;;6292292;28;20086;-69
2023/12/27 02:20:34;;;;;;;10.77;3.00;;;;;;;;;;6290845;28;20044;-68
2023/12/27 02:23:36;;;;;;;;;;;;;;;;;;6293545;28;20130;-69
2023/12/27 02:26:37;;;;;;;9.38;3.00;;;;;;;;;;6290589;28;19924;-68
2023/12/27 02:29:38;;;;;;;11.57;2.33;;;;;;;;;;6293531;28;20098;-68
2023/12/27 02:32:39;;;;;;;10.77;3.35;;;;;;;;;;6293651;28;20041;-69
2023/12/27 02:35:40;;;;;;;14.98;3.10;;;;;;;;;;6290941;28;20483;-69
2023/12/27 02:38:40;;;;;;;8.35;2.80;;;;;;;;;;6291130;28;20055;-68
2023/12/27 02:41:41;;;;;;;7.63;2.55;;;;;;;;;;6292957;28;20080;-68
2023/12/27 02:44:42;;;;;;;9.63;2.90;;;;;;;;;;6289840;28;20044;-68
2023/12/27 02:47:43;;;;;;;9.75;3.25;;;;;;;;;;6289868;28;20044;-67
2023/12/27 02:50:44;;;;;;;7.45;3.00;;;;;;;;;;6290353;28;20044;-68
2023/12/27 02:53:45;;;;;;;6.15;2.60;;;;;;;;;;6279848;28;20555;-67
2023/12/27 02:56:45;;;;;;;10.48;3.20;;;;;;;;;;6290431;28;20081;-68
2023/12/27 02:59:46;;;;;;;10.10;3.67;;;;;;;;;;6292671;28;20072;-68
2023/12/27 03:02:47;;;;;;;11.95;3.30;;;;;;;;;;6292183;28;20495;-68
2023/12/27 03:05:48;;;;;;;10.73;3.30;;;;;;;;;;6289335;28;20139;-68
2023/12/27 03:08:52;;;;;;;8.73;3.20;;;;;;;;;;6291513;28;20049;-68
2023/12/27 03:11:53;;;;;;;11.50;3.85;;;;;;;;;;6292324;28;20049;-69
2023/12/27 03:14:53;;;;;;;9.38;3.20;;;;;;;;;;6291231;28;20060;-68
2023/12/27 03:17:54;;;;;;;8.85;2.95;;;;;;;;;;6286905;28;20071;-68
2023/12/27 03:20:55;;;;;;;9.82;3.20;;;;;;;;;;6290768;28;20049;-67
2023/12/27 03:23:55;;;;;;;8.75;3.20;;;;;;;;;;6291947;28;20040;-66
2023/12/27 03:26:56;;;;;;;11.07;3.13;;;;;;;;;;6289904;28;20049;-67
2023/12/27 03:29:57;;;;;;;10.25;3.00;;;;;;;;;;6291712;28;20235;-68
2023/12/27 03:32:57;;;;;;;11.75;3.33;;;;;;;;;;6290448;28;20423;-66
2023/12/27 03:35:58;;;;;;;15.90;3.92;;;;;;;;;;6289108;28;20552;-68
2023/12/27 03:38:59;;;;;;;7.72;3.05;;;;;;;;;;6289841;28;20055;-68
2023/12/27 03:42:02;;;;;;;11.55;4.10;;;;;;;;;;6290933;28;20048;-68
2023/12/27 03:45:03;;;;;;;11.00;3.97;;;;;;;;;;6291366;28;20063;-68
2023/12/27 03:48:05;;;;;;;20.63;4.27;;;;;;;;;;6289629;28;20047;-67
2023/12/27 03:51:05;;;;;;;13.05;3.80;;;;;;;;;;6273217;28;20736;-67
2023/12/27 03:54:06;;;;;;;10.73;3.97;;;;;;;;;;6290728;28;20040;-68
2023/12/27 03:57:07;;;;;;;9.93;3.70;;;;;;;;;;6288526;28;20076;-68
2023/12/27 04:00:10;;;;;;;10.25;3.60;;;;;;;;;;6290517;28;20071;-68
2023/12/27 04:03:11;;;;;;;11.93;3.72;;;;;;;;;;6289188;28;20094;-68
2023/12/27 04:06:16;;;;;;;13.85;3.83;;;;;;;;;;6287382;28;20179;-68
2023/12/27 04:09:17;;;;;;;13.85;3.75;;;;;;;;;;6290036;28;20471;-68
2023/12/27 04:12:18;;;;;;;9.85;3.20;;;;;;;;;;6291067;28;20048;-68
2023/12/27 04:15:19;;;;;;;10.38;3.90;;;;;;;;;;6289693;28;20048;-68
2023/12/27 04:18:20;;;;;;;10.77;3.20;;;;;;;;;;6289806;28;20044;-68
2023/12/27 04:21:21;;;;;;;12.00;3.30;;;;;;;;;;6290614;28;20044;-66
2023/12/27 04:24:23;;;;;;;11.57;3.05;;;;;;;;;;6290860;28;20051;-68
2023/12/27 04:27:24;;;;;;;10.93;3.25;;;;;;;;;;6288378;28;20049;-67
2023/12/27 04:30:24;;;;;;;9.48;2.88;;;;;;;;;;6290399;28;20098;-68
2023/12/27 04:33:25;;;;;;;10.57;3.10;;;;;;;;;;6284202;28;20024;-66
2023/12/27 04:36:26;;;;;;;11.40;2.90;;;;;;;;;;6286685;28;20048;-67
2023/12/27 04:39:26;;;;;;;12.20;3.58;;;;;;;;;;6290163;28;20110;-67
2023/12/27 04:42:27;;;;;;;10.15;2.88;;;;;;;;;;6288300;28;20060;-67
2023/12/27 04:45:28;;;;;;;6.68;2.60;;;;;;;;;;6288121;28;20040;-68
2023/12/27 04:48:30;;;;;;;16.67;3.90;;;;;;;;;;6285826;28;20508;-66
2023/12/27 04:51:31;;;;;;;13.48;3.00;;;;;;;;;;6288015;28;20449;-67
2023/12/27 04:54:32;;;;;;;7.18;2.83;;;;;;;;;;6287779;28;20048;-67
2023/12/27 04:57:33;;;;;;;9.15;2.88;;;;;;;;;;6286166;28;20048;-67
2023/12/27 05:00:33;;;;;;;6.97;2.92;;;;;;;;;;6291084;28;20078;-66
2023/12/27 05:03:35;;;;;;;10.63;2.75;;;;;;;;;;6293486;28;20194;-67
2023/12/27 05:06:35;;;;;;;8.90;2.88;;;;;;;;;;6289886;28;20067;-68
2023/12/27 05:09:36;;;;;;;13.60;3.55;;;;;;;;;;6290571;28;20127;-68
2023/12/27 05:12:37;;;;;;;10.07;3.17;;;;;;;;;;6294189;28;20052;-67
2023/12/27 05:15:38;;;;;;;13.00;3.40;;;;;;;;;;6295450;28;20126;-67
2023/12/27 05:18:39;;;;;;;14.57;3.67;;;;;;;;;;6292349;28;20472;-67
2023/12/27 05:21:40;;;;;;;11.70;3.60;;;;;;;;;;6293103;28;20051;-68
2023/12/27 05:24:41;;;;;;;9.93;3.28;;;;;;;;;;6294908;28;20048;-69
2023/12/27 05:27:43;;;;;;;10.23;3.50;;;;;;;;;;6293203;28;21006;-67
2023/12/27 05:30:44;;;;;;;10.48;3.85;;;;;;;;;;6295703;28;20056;-69
2023/12/27 05:33:45;;;;;;;8.63;3.60;;;;;;;;;;6294713;28;20502;-69
2023/12/27 05:36:46;;;;;;;9.07;3.67;;;;;;;;;;6292743;28;20041;-66
2023/12/27 05:39:47;;;;;;;9.02;3.88;;;;;;;;;;6292701;28;20041;-66
2023/12/27 05:42:47;;;;;;;13.43;4.30;;;;;;;;;;6294655;28;20060;-66
2023/12/27 05:45:48;;;;;;;13.60;4.20;;;;;;;;;;6293387;28;20048;-67
2023/12/27 05:48:49;;;;;;;12.43;4.07;;;;;;;;;;6290905;28;20111;-67
2023/12/27 05:51:50;;;;;;;9.15;3.63;;;;;;;;;;6293905;28;20037;-65
2023/12/27 05:54:51;;;;;;;9.05;2.83;;;;;;;;;;6292659;28;20037;-66
2023/12/27 05:57:52;;;;;;;12.75;2.90;;;;;;;;;;6292605;28;20056;-67
2023/12/27 06:00:53;;;;;;;5.35;2.53;;;;;;;;;;6294345;28;20437;-66
2023/12/27 06:03:54;;;;;;;7.45;2.58;;;;;;;;;;6293588;28;20399;-66
2023/12/27 06:06:54;;;;;;;8.68;2.50;;;;;;;;;;6292066;28;20063;-66
2023/12/27 06:09:55;;;;;;;10.73;3.05;;;;;;;;;;6291826;28;20044;-67
2023/12/27 06:12:56;;;;;;;8.60;2.28;;;;;;;;;;6289921;28;20121;-66
2023/12/27 06:15:57;;;;;;;6.80;2.05;;;;;;;;;;6291685;28;20564;-67
2023/12/27 06:19:00;;;;;;;7.22;1.80;;;;;;;;;;6292161;28;20085;-67
2023/12/27 06:22:00;;;;;;;9.35;2.55;;;;;;;;;;6293414;28;20144;-68
2023/12/27 06:25:01;;;;;;;8.05;1.98;;;;;;;;;;6294677;28;20048;-69
2023/12/27 06:28:04;;;;;;;7.82;2.17;;;;;;;;;;6289160;28;20058;-68
2023/12/27 06:31:04;;;;;;;;;;;;;;;;;;6292028;28;20040;-69
2023/12/27 06:34:06;;;;;;;5.70;1.88;;;;;;;;;;6293303;28;19943;-66
2023/12/27 06:37:06;;;;;;;10.02;2.60;;;;;;;;;;6292011;28;20086;-69
2023/12/27 06:40:08;;;;;;;9.85;2.67;;;;;;;;;;6292434;28;20132;-68
2023/12/27 06:43:09;;;;;;;6.57;2.35;;;;;;;;;;6291521;28;20809;-67
2023/12/27 06:46:10;;;;;;;11.57;2.30;;;;;;;;;;6290727;28;20079;-69
2023/12/27 06:49:11;;;;;;;10.32;2.70;;;;;;;;;;6291827;28;20167;-64
2023/12/27 06:52:11;;;;;;;10.75;2.47;;;;;;;;;;6292501;28;20493;-66
2023/12/27 06:55:12;;;;;;;10.75;2.10;;;;;;;;;;6292233;28;20049;-66
2023/12/27 06:58:13;;;;;;;9.73;3.00;;;;;;;;;;6291009;28;20411;-65
2023/12/27 07:01:16;;;;;;;12.07;3.58;;;;;;;;;;6292933;28;20057;-66
2023/12/27 07:04:17;;;;;;;10.18;3.17;;;;;;;;;;6291461;28;20426;-66
2023/12/27 07:07:18;;;;;;;10.68;2.78;;;;;;;;;;6291009;28;20086;-65
2023/12/27 07:10:19;;;;;;;13.65;4.35;;;;;;;;;;6293685;28;20040;-66
2023/12/27 07:13:20;;;;;;;8.32;3.00;;;;;;;;;;6292070;28;20052;-65
2023/12/27 07:16:21;;;;;;;10.68;3.20;;;;;;;;;;6292467;28;20486;-66
2023/12/27 07:19:21;;;;;;;10.63;3.42;;;;;;;;;;6292651;28;20060;-65
2023/12/27 07:22:23;;;;;;;12.93;2.88;;;;;;;;;;6292786;28;20056;-67
2023/12/27 07:25:25;;;;;;;10.47;3.50;;;;;;;;;;6292507;28;20048;-63
2023/12/27 07:28:26;;;;;;;15.85;3.78;;;;;;;;;;6291748;28;20285;-66
2023/12/27 07:31:27;;;;;;;13.02;3.92;;;;;;;;;;6293214;28;20523;-66
2023/12/27 07:34:28;;;;;;;16.67;4.53;;;;;;;;;;6291426;28;20093;-66
2023/12/27 07:37:28;;;;;;;13.13;3.60;;;;;;;;;;6288461;28;20094;-65
2023/12/27 07:40:29;;;;;;;12.70;3.55;;;;;;;;;;6291335;28;20049;-65
2023/12/27 07:43:30;;;;;;;11.02;4.15;;;;;;;;;;6292251;28;20410;-66
2023/12/27 07:46:31;;;;;;;11.02;3.22;;;;;;;;;;6291771;28;20064;-65
2023/12/27 07:49:31;;;;;;;12.88;3.08;;;;;;;;;;6291966;28;20416;-64
2023/12/27 07:52:32;;;;;;;13.85;3.90;;;;;;;;;;6291971;28;20079;-64
2023/12/27 07:55:33;;;;;;;10.52;4.00;;;;;;;;;;6292465;28;20123;-65
2023/12/27 07:58:34;;;;;;;15.90;4.78;;;;;;;;;;6291284;28;20141;-65
2023/12/27 08:01:35;;;;;;;14.80;3.58;;;;;;;;;;6290592;28;20052;-67
2023/12/27 08:04:35;;;;;;;10.35;3.40;;;;;;;;;;6290368;28;20060;-65
2023/12/27 08:07:37;;;;;;;12.10;3.20;;;;;;;;;;6289873;28;20110;-65
2023/12/27 08:10:38;;;;;;;10.05;3.40;;;;;;;;;;6288489;28;20442;-65
2023/12/27 08:13:40;;;;;;;11.63;3.72;;;;;;;;;;6287416;28;20032;-64
2023/12/27 08:16:41;;;;;;;13.07;3.97;;;;;;;;;;6286473;28;20115;-64
2023/12/27 08:19:41;;;;;;;12.60;3.88;;;;;;;;;;6287868;28;20045;-64
2023/12/27 08:22:42;;;;;;;11.35;3.88;;;;;;;;;;6284485;28;20044;-65
2023/12/27 08:25:46;;;;;;;10.70;3.55;;;;;;;;;;6285540;28;20037;-64
2023/12/27 08:28:47;;;;;;;14.93;3.97;;;;;;;;;;6284682;28;20047;-64
2023/12/27 08:31:48;;;;;;;11.98;4.05;;;;;;;;;;6287664;28;20064;-65
2023/12/27 08:34:49;;;;;;;11.60;3.40;;;;;;;;;;6288411;28;20119;-65
2023/12/27 08:37:49;;;;;;;11.23;3.60;;;;;;;;;;6288774;28;20051;-65
2023/12/27 08:40:50;;;;;;;11.23;3.80;;;;;;;;;;6288421;28;20048;-65
2023/12/27 08:43:54;;;;;;;8.90;2.72;;;;;;;;;;6289836;28;20090;-64
2023/12/27 08:46:54;;;;;;;11.80;3.60;;;;;;;;;;6289213;28;20143;-65
2023/12/27 08:49:55;;;;;;;9.77;2.35;;;;;;;;;;6287084;28;20044;-65
2023/12/27 08:52:56;;;;;;;8.50;2.50;;;;;;;;;;6289960;28;20048;-65
2023/12/27 08:55:57;;;;;;;11.67;2.70;;;;;;;;;;6291540;28;20052;-64
2023/12/27 08:58:59;;;;;;;9.32;2.83;;;;;;;;;;6287032;28;20356;-64
2023/12/27 09:01:59;;;;;;;12.43;3.58;;;;;;;;;;6289624;28;20391;-64
2023/12/27 09:05:01;;;;;;;16.33;3.30;;;;;;;;;;6302890;28;20441;-64
2023/12/27 09:08:01;;;;;;;16.17;4.45;;;;;;;;;;6288972;28;20048;-65
2023/12/27 09:11:04;;;;;;;10.15;3.70;;;;;;;;;;6287380;28;20516;-64
2023/12/27 09:14:05;;;;;;;11.80;3.58;;;;;;;;;;6287824;28;20136;-64
2023/12/27 09:17:07;;;;;;;13.18;3.63;;;;;;;;;;6288554;28;20328;-64
2023/12/27 09:20:09;;;;;;;12.00;2.42;;;;;;;;;;6287558;28;20055;-64
2023/12/27 09:23:10;;;;;;;12.38;3.20;;;;;;;;;;6289662;28;20048;-64
2023/12/27 09:26:12;;;;;;;13.30;2.85;;;;;;;;;;6287644;28;20052;-64
2023/12/27 09:29:13;;;;;;;9.23;2.75;;;;;;;;;;6285752;28;20419;-64
2023/12/27 09:32:13;;;;;;;14.77;2.78;;;;;;;;;;6289093;28;20055;-65
2023/12/27 09:35:14;;;;;;;10.40;2.50;;;;;;;;;;6289037;28;20040;-64
2023/12/27 09:38:15;;;;;;;8.52;2.60;;;;;;;;;;6287474;28;20048;-64
2023/12/27 09:41:16;;;;;;;9.75;2.55;;;;;;;;;;6289656;28;20115;-65
2023/12/27 09:44:20;;;;;;;8.77;2.67;;;;;;;;;;6286185;28;20407;-65
2023/12/27 09:47:23;;;;;;;10.13;2.72;;;;;;;;;;6288937;28;20518;-64
2023/12/27 09:50:25;;;;;;;10.02;2.58;;;;;;;;;;6295055;28;20474;-64
2023/12/27 09:53:26;;;;;;;12.60;3.42;;;;;;;;;;6294112;28;20044;-64
2023/12/27 09:56:28;;;;;;;11.63;3.28;;;;;;;;;;6291472;28;20045;-66
2023/12/27 09:59:33;;;;;;;11.13;2.80;;;;;;;;;;6292150;28;20044;-66
2023/12/27 10:02:34;;;;;;;14.10;3.17;;;;;;;;;;6293080;28;20404;-65
2023/12/27 10:05:58;;;;;;;13.17;3.00;;;;;;;;;;6291782;28;20514;-66
2023/12/27 10:09:00;;;;;;;10.38;2.88;;;;;;;;;;6290402;28;21023;-66
2023/12/27 10:12:01;;;;;;;6.25;2.40;;;;;;;;;;6291622;28;20044;-66
2023/12/27 10:15:03;;;;;;;9.65;2.67;;;;;;;;;;6291936;28;20052;-66
2023/12/27 10:18:04;;;;;;;;;;;;;;;;;;6292674;28;20132;-66
2023/12/27 10:21:05;;;;;;;11.82;2.42;;;;;;;;;;6290164;28;20397;-66
2023/12/27 10:24:06;;;;;;;10.48;3.10;;;;;;;;;;6288998;28;20447;-66
2023/12/27 10:27:08;;;;;;;10.18;2.63;;;;;;;;;;6290934;28;20540;-66
2023/12/27 10:30:13;;;;;;;10.82;2.05;;;;;;;;;;6291633;28;20048;-66
2023/12/27 10:33:14;;;;;;;10.68;3.08;;;;;;;;;;6292047;28;20051;-66
2023/12/27 10:36:17;;;;;;;11.73;2.47;;;;;;;;;;6291760;28;20119;-66
2023/12/27 10:39:18;;;;;;;12.32;2.67;;;;;;;;;;6291738;28;20057;-65
2023/12/27 10:42:26;;;;;;;8.32;2.30;;;;;;;;;;6288673;28;20458;-67
2023/12/27 10:45:27;;;;;;;8.73;2.10;;;;;;;;;;6292547;28;20079;-66
2023/12/27 10:48:33;;;;;;;7.85;3.08;;;;;;;;;;6292434;28;20808;-66
2023/12/27 10:51:38;;;;;;;11.68;3.33;;;;;;;;;;6290485;28;20045;-66
2023/12/27 10:54:44;;;;;;;7.20;2.13;;;;;;;;;;6292025;28;20102;-66
2023/12/27 10:57:51;;;;;;;5.57;2.15;;;;;;;;;;6288946;28;20578;-66
2023/12/27 11:00:53;;;;;;;10.80;2.67;;;;;;;;;;6291578;28;20054;-66
2023/12/27 11:03:56;;;;;;;7.72;2.65;;;;;;;;;;6290677;28;20067;-66
2023/12/27 11:06:57;;;;;;;7.38;2.03;;;;;;;;;;6288893;28;20052;-64
2023/12/27 11:10:01;;;;;;;8.07;2.08;;;;;;;;;;6292002;28;20055;-66
2023/12/27 11:13:02;;;;;;;9.25;2.20;;;;;;;;;;6286717;28;20380;-65
2023/12/27 11:16:04;;;;;;;8.32;2.20;;;;;;;;;;6292741;28;20134;-65
2023/12/27 11:19:06;;;;;;;11.45;2.70;;;;;;;;;;6286725;28;20388;-64
2023/12/27 11:22:08;;;;;;;10.68;2.45;;;;;;;;;;6293850;28;20059;-66
2023/12/27 11:25:09;;;;;;;7.63;2.00;;;;;;;;;;6294502;28;20135;-68
2023/12/27 11:28:09;;;;;;;7.78;2.00;;;;;;;;;;6292384;28;20526;-70
2023/12/27 11:31:12;;;;;;;7.03;2.13;;;;;;;;;;6290430;28;20178;-68
2023/12/27 11:34:13;;;;;;;6.85;2.08;;;;;;;;;;6291389;28;20083;-68
2023/12/27 11:37:15;;;;;;;9.75;2.30;;;;;;;;;;6283957;28;20097;-67
2023/12/27 11:40:35;;;;;;;6.88;2.42;;;;;;;;;;6292855;28;20056;-68
2023/12/27 11:43:53;;;;;;;8.70;2.15;;;;;;;;;;6288860;28;20049;-70
2023/12/27 11:46:54;;;;;;;6.22;2.22;;;;;;;;;;6291716;28;20052;-68
2023/12/27 11:50:10;;;;;;;5.63;1.90;;;;;;;;;;6291787;28;20056;-64
2023/12/27 11:53:11;;;;;;;6.30;1.60;;;;;;;;;;6292446;28;20094;-69
2023/12/27 11:56:12;;;;;;;7.60;2.10;;;;;;;;;;6290916;28;20037;-68
2023/12/27 11:59:12;;;;;;;7.45;1.70;;;;;;;;;;6286464;28;20343;-68
2023/12/27 12:02:13;;;;;;;8.48;2.00;;;;;;;;;;6291827;28;20384;-69
2023/12/27 12:05:35;;;;;;;9.93;2.10;;;;;;;;;;6288916;28;20106;-65
2023/12/27 12:08:46;;;;;;;8.55;2.05;;;;;;;;;;6279528;28;20048;-67
2023/12/27 12:11:48;;;;;;;6.85;2.30;;;;;;;;;;6286467;28;20049;-67
2023/12/27 12:14:51;;;;;;;7.65;2.22;;;;;;;;;;6280059;28;20051;-69
2023/12/27 12:17:52;;;;;;;6.35;2.08;;;;;;;;;;6267686;28;20040;-67
2023/12/27 12:20:54;;;;;;;7.33;1.90;;;;;;;;;;6271328;28;20431;-69
2023/12/27 12:23:55;;;;;;;9.80;2.22;;;;;;;;;;6270149;28;20063;-68
2023/12/27 12:26:57;;;;;;;7.60;2.05;;;;;;;;;;6265960;28;20044;-68
2023/12/27 12:29:57;;;;;;;7.20;1.80;;;;;;;;;;6267828;28;20504;-75
2023/12/27 12:32:58;;;;;;;6.00;2.03;;;;;;;;;;6271117;28;20075;-68
2023/12/27 12:35:59;;;;;;;6.10;2.03;;;;;;;;;;6266744;28;20040;-64
2023/12/27 12:39:00;;;;;;;6.78;1.95;;;;;;;;;;6266446;28;20044;-66
2023/12/27 12:42:01;;;;;;;6.78;1.80;;;;;;;;;;6271938;28;20146;-68
2023/12/27 12:45:04;;;;;;;6.20;1.80;;;;;;;;;;6267662;28;20143;-68
2023/12/27 12:48:05;;;;;;;6.72;1.60;;;;;;;;;;6266585;28;20049;-68
2023/12/27 12:51:16;;;;;;;5.10;1.80;;;;;;;;;;6266646;28;20057;-67
2023/12/27 12:54:20;;;;;;;5.65;1.48;;;;;;;;;;6267973;28;20132;-67
2023/12/27 12:57:20;;;;;;;8.43;1.90;;;;;;;;;;6270987;28;20061;-65
2023/12/27 13:00:22;;;;;;;4.30;1.75;;;;;;;;;;6268922;28;20056;-66
2023/12/27 13:03:25;;;;;;;9.13;1.95;;;;;;;;;;6268659;28;20049;-68
2023/12/27 13:06:31;;;;;;;6.68;2.05;;;;;;;;;;6267954;28;20064;-66
2023/12/27 13:09:50;;;;;;;6.03;2.13;;;;;;;;;;6264567;28;20141;-67
2023/12/27 13:12:51;;;;;;;7.15;1.83;;;;;;;;;;6272213;28;20517;-67
2023/12/27 13:15:52;;;;;;;5.63;2.17;;;;;;;;;;6269786;28;20141;-63
2023/12/27 13:18:57;;;;;;;5.63;1.75;;;;;;;;;;6269068;28;20511;-64
2023/12/27 13:21:58;;;;;;;5.75;2.15;;;;;;;;;;6272393;28;20044;-63
2023/12/27 13:24:58;;;;;;;10.05;1.88;;;;;;;;;;6275450;28;20462;-64
2023/12/27 13:27:59;;;;;;;6.82;2.75;;;;;;;;;;6279144;28;20072;-65
2023/12/27 13:31:00;;;;;;;5.25;1.65;;;;;;;;;;6269812;28;20053;-65
2023/12/27 13:34:03;;;;;;;7.47;1.60;;;;;;;;;;6280811;28;20080;-64
2023/12/27 13:37:03;;;;;;;6.22;1.55;;;;;;;;;;6275639;28;20071;-64
2023/12/27 13:40:05;;;;;;;6.88;2.88;;;;;;;;;;6273063;28;20048;-64
2023/12/27 13:43:06;;;;;;;7.47;2.20;;;;;;;;;;6277737;28;20509;-61
2023/12/27 13:46:06;;;;;;;6.50;1.77;;;;;;;;;;6269817;28;20147;-65
2023/12/27 13:49:09;;;;;;;6.68;2.45;;;;;;;;;;6275999;28;20431;-65
2023/12/27 13:52:10;;;;;;;9.00;2.65;;;;;;;;;;6269365;28;20063;-64
2023/12/27 13:55:11;;;;;;;6.65;2.17;;;;;;;;;;6268604;28;20053;-64
2023/12/27 13:58:12;;;;;;;7.80;2.15;;;;;;;;;;6268736;28;20064;-65
2023/12/27 14:01:13;;;;;;;11.10;2.38;;;;;;;;;;6270441;28;20579;-64
2023/12/27 14:04:13;;;;;;;7.57;2.70;;;;;;;;;;6269610;28;20044;-65
2023/12/27 14:07:14;;;;;;;6.82;1.75;;;;;;;;;;6270568;28;20052;-65
2023/12/27 14:10:15;;;;;;;5.95;2.30;;;;;;;;;;6267065;28;20079;-65
2023/12/27 14:13:18;;;;;;;8.10;2.13;;;;;;;;;;6277513;28;20453;-64
2023/12/27 14:16:18;;;;;;;9.57;2.70;;;;;;;;;;6270949;28;20052;-64
2023/12/27 14:19:19;;;;;;;7.05;1.95;;;;;;;;;;6272523;28;20404;-65
2023/12/27 14:22:20;;;;;;;6.43;1.95;;;;;;;;;;6270819;28;20044;-64
2023/12/27 14:25:21;;;;;;;9.10;2.28;;;;;;;;;;6272728;28;20064;-64
2023/12/27 14:28:22;;;;;;;8.23;2.55;;;;;;;;;;6270043;28;20668;-65
2023/12/27 14:31:25;;;;;;;7.75;2.70;;;;;;;;;;6265575;28;20049;-64
2023/12/27 14:34:25;;;;;;;8.20;2.53;;;;;;;;;;6265784;28;20428;-65
2023/12/27 14:37:26;;;;;;;8.20;2.60;;;;;;;;;;6266876;28;20041;-64
2023/12/27 14:40:29;;;;;;;10.10;2.88;;;;;;;;;;6266592;28;20044;-65
2023/12/27 14:43:31;;;;;;;8.23;2.55;;;;;;;;;;6269197;28;20056;-65
2023/12/27 14:46:32;;;;;;;7.90;3.10;;;;;;;;;;6274143;28;20049;-65
2023/12/27 14:49:33;;;;;;;9.50;3.40;;;;;;;;;;6266198;28;20605;-65
2023/12/27 14:52:35;;;;;;;10.20;2.95;;;;;;;;;;6266116;28;20079;-64
2023/12/27 14:55:36;;;;;;;;;;;;;;;;;;6265000;28;20045;-65
2023/12/27 14:58:37;;;;;;;11.50;2.70;;;;;;;;;;6269807;28;19947;-64
2023/12/27 15:01:38;;;;;;;14.10;4.63;;;;;;;;;;6263574;28;20060;-65
2023/12/27 15:04:39;;;;;;;9.20;3.38;;;;;;;;;;6264488;28;20041;-64
2023/12/27 15:07:40;;;;;;;14.25;4.20;;;;;;;;;;6268309;28;20045;-65
2023/12/27 15:10:40;;;;;;;8.40;2.60;;;;;;;;;;6285122;28;21387;-64
2023/12/27 15:13:42;;;;;;;15.73;4.82;;;;;;;;;;6271369;28;20048;-64
2023/12/27 15:16:43;;;;;;;19.53;5.27;;;;;;;;;;6273429;28;20518;-64
2023/12/27 15:19:44;;;;;;;15.07;5.30;;;;;;;;;;6274452;28;20048;-66
2023/12/27 15:22:45;;;;;;;19.90;7.22;;;;;;;;;;6273375;28;20962;-65
2023/12/27 15:25:51;;;;;;;16.00;6.78;;;;;;;;;;6272312;28;20049;-66
2023/12/27 15:28:52;;;;;;;14.93;6.45;;;;;;;;;;6268852;28;20055;-66
2023/12/27 15:31:53;;;;;;;21.88;8.75;;;;;;;;;;6269464;28;20044;-64
2023/12/27 15:34:55;;;;;;;22.38;8.60;;;;;;;;;;6267614;28;20060;-65
2023/12/27 15:37:56;;;;;;;15.80;6.18;;;;;;;;;;6272372;28;20098;-67
2023/12/27 15:40:57;;;;;;;16.98;6.38;;;;;;;;;;6268005;28;20064;-65
2023/12/27 15:43:58;;;;;;;37.58;13.75;;;;;;;;;;6263977;28;20574;-67
2023/12/27 15:47:01;;;;;;;47.45;16.88;;;;;;;;;;6267175;28;20041;-65
2023/12/27 15:50:01;;;;;;;46.17;17.20;;;;;;;;;;6266075;28;20053;-66
2023/12/27 15:53:02;;;;;;;46.97;20.35;;;;;;;;;;6268883;28;20082;-65
2023/12/27 15:56:03;;;;;;;39.30;15.32;;;;;;;;;;6272412;28;20071;-65
2023/12/27 15:59:04;;;;;;;42.38;16.35;;;;;;;;;;6267297;28;20088;-67
2023/12/27 16:02:05;;;;;;;36.60;16.25;;;;;;;;;;6266106;28;20041;-64
2023/12/27 16:05:08;;;;;;;43.78;17.63;;;;;;;;;;6265910;28;20063;-66
2023/12/27 16:08:08;;;;;;;45.20;17.88;;;;;;;;;;6272807;28;20407;-65
2023/12/27 16:11:09;;;;;;;37.83;14.77;;;;;;;;;;6282211;28;20052;-66
2023/12/27 16:14:10;;;;;;;39.63;15.30;;;;;;;;;;6267304;28;20044;-64
2023/12/27 16:17:11;;;;;;;43.85;17.02;;;;;;;;;;6270872;28;20904;-64
2023/12/27 16:20:12;;;;;;;44.10;17.52;;;;;;;;;;6267957;28;20166;-64
2023/12/27 16:23:13;;;;;;;46.70;16.92;;;;;;;;;;6269523;28;20724;-64
2023/12/27 16:26:14;;;;;;;45.72;18.08;;;;;;;;;;6266717;28;20886;-64
2023/12/27 16:29:16;;;;;;;54.90;20.08;;;;;;;;;;6272952;28;20571;-68
2023/12/27 16:32:19;;;;;;;50.33;19.20;;;;;;;;;;6264626;28;20056;-69
2023/12/27 16:35:20;;;;;;;54.85;21.45;;;;;;;;;;6266871;28;20342;-67
2023/12/27 16:38:22;;;;;;;75.72;29.98;;;;;;;;;;6274094;28;20048;-65
2023/12/27 16:41:23;;;;;;;;;;;;;;;;;;6274806;28;20050;-65
2023/12/27 16:44:25;;;;;;;63.22;23.48;;;;;;;;;;6269118;28;20484;-66
2023/12/27 16:47:26;;;;;;;84.47;28.38;;;;;;;;;;6267842;28;20044;-67
2023/12/27 16:50:28;;;;;;;58.90;23.45;;;;;;;;;;6264152;28;21232;-65
2023/12/27 16:53:29;;;;;;;;;;;;;;;;;;6271989;28;20049;-65
2023/12/27 16:56:30;;;;;;;70.15;24.52;;;;;;;;;;6273717;28;20429;-66
2023/12/27 16:59:30;;;;;;;80.30;30.50;;;;;;;;;;6274656;28;20045;-65
2023/12/27 17:02:31;;;;;;;83.13;30.20;;;;;;;;;;6269034;28;20399;-65
2023/12/27 17:05:35;;;;;;;85.35;33.33;;;;;;;;;;6275988;28;20083;-67
2023/12/27 17:08:36;;;;;;;78.28;30.23;;;;;;;;;;6289747;28;20057;-66
2023/12/27 17:11:39;;;;;;;81.20;32.10;;;;;;;;;;6287215;28;20507;-68
2023/12/27 17:14:39;;;;;;;73.80;33.38;;;;;;;;;;6287307;28;20086;-67
2023/12/27 17:17:40;;;;;;;81.60;33.65;;;;;;;;;;6289112;28;20044;-67
2023/12/27 17:20:41;;;;;;;70.53;27.85;;;;;;;;;;6288795;28;20074;-67
2023/12/27 17:23:41;;;;;;;76.60;29.60;;;;;;;;;;6288026;28;20072;-67
2023/12/27 17:26:48;;;;;;;34.63;11.55;;;;;;;;;;6290070;28;20055;-65
2023/12/27 17:29:50;;;;;;;29.02;12.15;;;;;;;;;;6277200;28;20048;-67
2023/12/27 17:32:50;;;;;;;35.42;14.18;;;;;;;;;;6288592;28;20049;-68
2023/12/27 17:35:52;;;;;;;40.70;14.80;;;;;;;;;;6289568;28;20076;-66
2023/12/27 17:38:53;;;;;;;39.03;16.25;;;;;;;;;;6289363;28;20516;-68
2023/12/27 17:41:54;;;;;;;66.87;28.97;;;;;;;;;;6286992;28;20040;-68
2023/12/27 17:44:55;;;;;;;101.55;40.83;;;;;;;;;;6289301;28;20305;-67
2023/12/27 17:47:56;;;;;;;86.78;34.47;;;;;;;;;;6289611;28;20443;-67
2023/12/27 17:50:56;;;;;;;89.22;36.10;;;;;;;;;;6290240;28;20049;-67
2023/12/27 17:53:57;;;;;;;92.72;35.47;;;;;;;;;;6287158;28;20056;-68
2023/12/27 17:56:58;;;;;;;95.95;35.92;;;;;;;;;;6289612;28;20052;-66
2023/12/27 17:59:58;;;;;;;115.57;44.63;;;;;;;;;;6289524;28;20514;-68